Time;durP1;ratioP1;P1;durP2;ratioP2;P2;SDS_P1;SDS_P2;PMS_P1;PMS_P2;Temp;Humidity;BMP_temperature;BMP_pressure;BME280_temperature;BME280_humidity;BME280_pressure;Samples;Min_cycle;Max_cycle;Signal;HPM_P1;HPM_P2
2023/07/21 00:02:25;;;;;;;3.38;1.20;;;;;;;;;;4999781;28;20433;-83
2023/07/21 00:04:51;;;;;;;2.20;1.10;;;;;;;;;;5016331;28;21259;-83
2023/07/21 00:07:16;;;;;;;3.22;1.30;;;;;;;;;;5017265;28;20069;-83
2023/07/21 00:09:43;;;;;;;3.60;1.20;;;;;;;;;;4999561;28;20038;-82
2023/07/21 00:12:09;;;;;;;2.83;1.20;;;;;;;;;;4982224;28;20490;-81
2023/07/21 00:14:34;;;;;;;4.28;1.33;;;;;;;;;;5001816;28;20030;-82
2023/07/21 00:17:01;;;;;;;4.15;1.25;;;;;;;;;;4999240;28;20116;-82
2023/07/21 00:19:26;;;;;;;2.28;1.10;;;;;;;;;;4984914;28;20489;-83
2023/07/21 00:21:52;;;;;;;4.45;1.25;;;;;;;;;;4994864;28;20040;-83
2023/07/21 00:24:18;;;;;;;3.30;1.48;;;;;;;;;;5002806;28;20731;-82
2023/07/21 00:26:47;;;;;;;2.92;1.10;;;;;;;;;;4987138;28;20097;-82
2023/07/21 00:29:12;;;;;;;3.40;1.30;;;;;;;;;;5016793;28;20042;-82
2023/07/21 00:31:39;;;;;;;4.47;1.30;;;;;;;;;;4999815;28;20674;-82
2023/07/21 00:34:05;;;;;;;3.28;1.33;;;;;;;;;;4993531;28;20508;-82
2023/07/21 00:36:31;;;;;;;3.55;1.17;;;;;;;;;;4977134;28;20037;-82
2023/07/21 00:38:58;;;;;;;2.80;1.08;;;;;;;;;;4997309;28;20080;-82
2023/07/21 00:41:25;;;;;;;3.15;1.23;;;;;;;;;;5016045;28;20733;-82
2023/07/21 00:43:51;;;;;;;2.40;1.10;;;;;;;;;;5014115;28;20038;-82
2023/07/21 00:46:17;;;;;;;3.75;1.10;;;;;;;;;;4998615;28;20049;-82
2023/07/21 00:48:42;;;;;;;4.65;1.10;;;;;;;;;;4986836;28;20128;-81
2023/07/21 00:51:09;;;;;;;4.10;1.42;;;;;;;;;;5013394;28;20149;-82
2023/07/21 00:53:35;;;;;;;3.20;1.20;;;;;;;;;;5002807;28;20559;-83
2023/07/21 00:56:01;;;;;;;4.32;1.13;;;;;;;;;;4998788;28;20022;-82
2023/07/21 00:58:27;;;;;;;3.88;1.55;;;;;;;;;;4998993;28;20042;-83
2023/07/21 01:00:53;;;;;;;5.90;1.48;;;;;;;;;;5015648;28;20045;-83
2023/07/21 01:03:18;;;;;;;4.18;1.30;;;;;;;;;;5015205;28;20022;-82
2023/07/21 01:05:49;;;;;;;2.90;1.40;;;;;;;;;;5445448;22;20102;-79
2023/07/21 01:08:15;;;;;;;3.88;1.38;;;;;;;;;;5013814;28;20050;-78
2023/07/21 01:10:40;;;;;;;3.53;1.25;;;;;;;;;;4999726;28;20042;-79
2023/07/21 01:13:07;;;;;;;3.67;1.40;;;;;;;;;;4993884;28;20031;-79
2023/07/21 01:15:34;;;;;;;3.30;1.53;;;;;;;;;;5003057;28;20034;-80
2023/07/21 01:18:00;;;;;;;3.47;1.67;;;;;;;;;;5016498;28;20038;-79
2023/07/21 01:20:27;;;;;;;4.03;1.38;;;;;;;;;;4965614;28;20041;-80
2023/07/21 01:22:57;;;;;;;3.63;1.60;;;;;;;;;;4988000;28;20026;-80
2023/07/21 01:25:23;;;;;;;7.45;1.83;;;;;;;;;;5004709;28;21090;-79
2023/07/21 01:27:50;;;;;;;4.07;1.83;;;;;;;;;;5001817;28;20089;-79
2023/07/21 01:30:18;;;;;;;3.10;1.50;;;;;;;;;;4993823;28;20035;-80
2023/07/21 01:32:45;;;;;;;3.60;1.65;;;;;;;;;;4982698;28;20431;-79
2023/07/21 01:35:11;;;;;;;4.50;1.63;;;;;;;;;;4997937;28;20061;-80
2023/07/21 01:37:38;;;;;;;3.15;1.52;;;;;;;;;;5014919;28;20042;-80
2023/07/21 01:40:08;;;;;;;2.92;1.52;;;;;;;;;;5001871;28;20478;-80
2023/07/21 01:42:34;;;;;;;4.47;1.73;;;;;;;;;;4984445;28;20031;-80
2023/07/21 01:45:02;;;;;;;4.30;1.40;;;;;;;;;;4985422;28;20449;-80
2023/07/21 01:47:28;;;;;;;4.43;1.50;;;;;;;;;;5018130;28;20045;-80
2023/07/21 01:49:53;;;;;;;4.10;1.50;;;;;;;;;;5008684;28;20059;-80
2023/07/21 01:52:19;;;;;;;3.40;1.70;;;;;;;;;;4972540;28;20436;-79
2023/07/21 01:54:51;;;;;;;3.55;1.75;;;;;;;;;;5022471;28;20390;-79
2023/07/21 01:57:45;;;;;;;3.70;1.40;;;;;;;;;;5036356;28;20050;-79
2023/07/21 02:00:12;;;;;;;3.50;1.50;;;;;;;;;;5033243;28;20165;-79
2023/07/21 02:02:40;;;;;;;3.45;1.40;;;;;;;;;;5034542;28;20042;-79
2023/07/21 02:05:06;;;;;;;4.30;1.63;;;;;;;;;;5005349;28;20033;-79
2023/07/21 02:07:32;;;;;;;5.22;1.70;;;;;;;;;;5024529;28;20120;-79
2023/07/21 02:10:01;;;;;;;3.72;1.70;;;;;;;;;;5004362;28;20034;-79
2023/07/21 02:12:26;;;;;;;4.10;1.70;;;;;;;;;;5008924;28;20041;-81
2023/07/21 02:14:55;;;;;;;3.92;2.00;;;;;;;;;;5009324;28;20111;-80
2023/07/21 02:17:20;;;;;;;4.68;1.65;;;;;;;;;;4987846;28;20037;-80
2023/07/21 02:19:46;;;;;;;5.10;1.73;;;;;;;;;;5011251;28;20049;-80
2023/07/21 02:22:12;;;;;;;5.05;1.80;;;;;;;;;;5004460;28;20042;-81
2023/07/21 02:24:38;;;;;;;5.05;1.80;;;;;;;;;;5000784;28;20042;-81
2023/07/21 02:27:04;;;;;;;4.47;1.77;;;;;;;;;;5007967;28;20052;-81
2023/07/21 02:29:29;;;;;;;6.70;1.95;;;;;;;;;;5007372;28;20125;-81
2023/07/21 02:31:55;;;;;;;2.95;1.60;;;;;;;;;;5027105;28;20096;-81
2023/07/21 02:34:20;;;;;;;5.53;1.80;;;;;;;;;;5024731;28;20118;-80
2023/07/21 02:36:46;;;;;;;3.75;1.75;;;;;;;;;;5009973;28;24755;-80
2023/07/21 02:39:11;;;;;;;5.75;1.67;;;;;;;;;;5011450;28;20160;-80
2023/07/21 02:41:36;;;;;;;4.35;1.70;;;;;;;;;;4992515;28;20107;-79
2023/07/21 02:44:03;;;;;;;4.00;1.85;;;;;;;;;;5026586;28;20038;-79
2023/07/21 02:46:28;;;;;;;4.65;1.92;;;;;;;;;;5036085;28;20038;-80
2023/07/21 02:48:53;;;;;;;3.85;1.50;;;;;;;;;;5002408;28;20395;-80
2023/07/21 02:51:19;;;;;;;4.68;1.70;;;;;;;;;;5039672;28;20042;-80
2023/07/21 02:53:45;;;;;;;6.75;2.47;;;;;;;;;;5036900;28;20121;-80
2023/07/21 02:56:10;;;;;;;4.25;2.05;;;;;;;;;;5041582;28;20124;-80
2023/07/21 02:58:36;;;;;;;4.63;1.90;;;;;;;;;;4994548;28;20042;-80
2023/07/21 03:01:03;;;;;;;5.55;1.90;;;;;;;;;;5010408;28;20376;-81
2023/07/21 03:03:29;;;;;;;3.38;1.60;;;;;;;;;;4991156;28;20049;-80
2023/07/21 03:05:55;;;;;;;5.93;2.10;;;;;;;;;;5040095;28;20166;-80
2023/07/21 03:08:26;;;;;;;5.15;2.10;;;;;;;;;;5031788;28;20042;-81
2023/07/21 03:10:53;;;;;;;3.55;1.88;;;;;;;;;;5024783;28;20073;-80
2023/07/21 03:13:20;;;;;;;4.97;1.67;;;;;;;;;;5002882;28;20042;-81
2023/07/21 03:15:48;;;;;;;7.03;2.67;;;;;;;;;;5007954;28;20085;-80
2023/07/21 03:18:13;;;;;;;4.22;2.05;;;;;;;;;;5023563;28;20032;-80
2023/07/21 03:20:39;;;;;;;6.38;2.20;;;;;;;;;;5009701;28;20038;-80
2023/07/21 03:23:07;;;;;;;4.80;2.65;;;;;;;;;;5023560;28;20030;-81
2023/07/21 03:25:33;;;;;;;6.43;2.28;;;;;;;;;;5012614;28;20057;-80
2023/07/21 03:27:59;;;;;;;4.43;2.22;;;;;;;;;;5016460;28;20626;-81
2023/07/21 03:30:24;;;;;;;5.43;2.50;;;;;;;;;;5006315;28;20125;-80
2023/07/21 03:32:49;;;;;;;5.38;2.10;;;;;;;;;;5040155;28;20056;-80
2023/07/21 03:35:15;;;;;;;3.65;1.83;;;;;;;;;;5022684;28;20069;-80
2023/07/21 03:37:40;;;;;;;4.05;1.92;;;;;;;;;;5009952;28;20035;-81
2023/07/21 03:40:07;;;;;;;5.13;2.20;;;;;;;;;;5026189;28;20040;-82
2023/07/21 03:42:34;;;;;;;4.65;1.80;;;;;;;;;;5008140;28;20065;-81
2023/07/21 03:45:04;;;;;;;4.82;1.95;;;;;;;;;;5024015;28;20033;-81
2023/07/21 03:47:32;;;;;;;5.03;1.80;;;;;;;;;;5006625;28;20069;-81
2023/07/21 03:49:58;;;;;;;3.88;2.03;;;;;;;;;;5006618;28;20047;-81
2023/07/21 03:52:24;;;;;;;4.60;1.92;;;;;;;;;;5011267;28;20485;-81
2023/07/21 03:54:52;;;;;;;4.03;2.00;;;;;;;;;;5024338;28;20477;-81
2023/07/21 03:57:18;;;;;;;4.18;2.13;;;;;;;;;;4991398;28;20161;-81
2023/07/21 03:59:43;;;;;;;5.05;2.15;;;;;;;;;;5036713;28;20121;-82
2023/07/21 04:02:09;;;;;;;5.55;1.85;;;;;;;;;;5011401;28;20049;-80
2023/07/21 04:04:35;;;;;;;4.15;1.95;;;;;;;;;;5038393;28;20485;-80
2023/07/21 04:07:01;;;;;;;4.20;1.92;;;;;;;;;;5017813;28;20091;-80
2023/07/21 04:09:28;;;;;;;4.68;1.70;;;;;;;;;;5006369;28;20046;-81
2023/07/21 04:11:53;;;;;;;3.83;1.98;;;;;;;;;;5001389;28;20034;-80
2023/07/21 04:14:18;;;;;;;4.05;2.00;;;;;;;;;;5026237;28;20479;-80
2023/07/21 04:16:44;;;;;;;4.05;1.90;;;;;;;;;;5020814;28;20072;-79
2023/07/21 04:19:09;;;;;;;5.10;1.88;;;;;;;;;;5023863;28;20034;-80
2023/07/21 04:21:35;;;;;;;3.22;1.42;;;;;;;;;;4981882;28;20045;-81
2023/07/21 04:24:00;;;;;;;4.40;1.60;;;;;;;;;;5012572;28;20461;-80
2023/07/21 04:26:26;;;;;;;6.10;1.90;;;;;;;;;;5007927;28;20050;-79
2023/07/21 04:28:51;;;;;;;4.57;1.88;;;;;;;;;;5021322;28;20120;-80
2023/07/21 04:31:21;;;;;;;3.72;1.58;;;;;;;;;;4989754;28;20042;-79
2023/07/21 04:33:46;;;;;;;4.68;1.60;;;;;;;;;;5025878;28;20495;-80
2023/07/21 04:36:12;;;;;;;3.88;1.83;;;;;;;;;;5004683;28;20064;-79
2023/07/21 04:38:38;;;;;;;8.40;1.98;;;;;;;;;;5033752;28;20400;-80
2023/07/21 04:41:05;;;;;;;4.72;1.60;;;;;;;;;;5003725;28;20030;-79
2023/07/21 04:43:30;;;;;;;5.25;1.63;;;;;;;;;;5009282;28;20041;-79
2023/07/21 04:45:56;;;;;;;7.45;1.60;;;;;;;;;;5027524;28;20129;-79
2023/07/21 04:48:21;;;;;;;4.75;1.92;;;;;;;;;;5037824;28;20702;-79
2023/07/21 04:50:53;;;;;;;4.53;1.75;;;;;;;;;;5006408;28;20176;-80
2023/07/21 04:53:22;;;;;;;3.10;1.48;;;;;;;;;;5035389;28;20041;-79
2023/07/21 04:55:48;;;;;;;3.72;1.65;;;;;;;;;;5042901;28;20485;-77
2023/07/21 04:58:14;;;;;;;5.40;1.67;;;;;;;;;;4989674;28;20037;-76
2023/07/21 05:00:42;;;;;;;3.38;1.55;;;;;;;;;;4977736;28;20682;-78
2023/07/21 05:03:13;;;;;;;4.50;1.70;;;;;;;;;;4985664;28;20551;-77
2023/07/21 05:05:39;;;;;;;4.32;1.70;;;;;;;;;;5031054;28;20489;-76
2023/07/21 05:08:04;;;;;;;5.45;1.70;;;;;;;;;;5019191;28;20041;-76
2023/07/21 05:10:30;;;;;;;4.40;1.50;;;;;;;;;;5006617;28;20046;-77
2023/07/21 05:12:56;;;;;;;4.75;1.73;;;;;;;;;;5010372;28;20033;-77
2023/07/21 05:15:22;;;;;;;3.40;1.60;;;;;;;;;;5023412;28;20050;-78
2023/07/21 05:17:48;;;;;;;3.35;1.58;;;;;;;;;;5014805;28;20039;-77
2023/07/21 05:20:13;;;;;;;5.45;1.73;;;;;;;;;;5006022;28;20026;-75
2023/07/21 05:22:39;;;;;;;5.53;1.70;;;;;;;;;;5013229;28;20044;-77
2023/07/21 05:25:07;;;;;;;4.20;1.55;;;;;;;;;;5006829;28;20034;-76
2023/07/21 05:27:33;;;;;;;4.22;1.40;;;;;;;;;;5002040;28;20044;-77
2023/07/21 05:29:59;;;;;;;4.05;1.50;;;;;;;;;;5006554;28;20049;-77
2023/07/21 05:32:24;;;;;;;3.28;1.30;;;;;;;;;;5007069;28;20150;-75
2023/07/21 05:34:50;;;;;;;4.35;1.30;;;;;;;;;;5003298;28;20037;-75
2023/07/21 05:37:15;;;;;;;4.72;1.30;;;;;;;;;;5004288;28;20034;-75
2023/07/21 05:39:41;;;;;;;4.85;1.60;;;;;;;;;;5008194;28;20072;-76
2023/07/21 05:42:10;;;;;;;3.65;1.58;;;;;;;;;;5002304;28;20030;-76
2023/07/21 05:44:37;;;;;;;3.45;1.42;;;;;;;;;;5022923;28;20040;-76
2023/07/21 05:47:03;;;;;;;3.20;1.40;;;;;;;;;;5017524;28;20040;-78
2023/07/21 05:49:36;;;;;;;5.05;1.40;;;;;;;;;;5005007;28;20422;-78
2023/07/21 05:52:02;;;;;;;4.93;1.48;;;;;;;;;;5023439;28;20574;-78
2023/07/21 05:54:27;;;;;;;8.18;1.80;;;;;;;;;;5007099;28;20149;-79
2023/07/21 05:56:56;;;;;;;6.35;2.42;;;;;;;;;;5008259;28;20026;-79
2023/07/21 05:59:24;;;;;;;4.10;1.65;;;;;;;;;;5035485;28;20389;-80
2023/07/21 06:01:51;;;;;;;7.40;2.08;;;;;;;;;;5015547;28;20034;-79
2023/07/21 06:04:20;;;;;;;6.50;2.00;;;;;;;;;;5014886;28;20493;-79
2023/07/21 06:06:45;;;;;;;9.98;2.40;;;;;;;;;;5015857;28;20455;-79
2023/07/21 06:09:11;;;;;;;6.32;2.28;;;;;;;;;;5022624;28;20053;-78
2023/07/21 06:11:37;;;;;;;5.65;2.30;;;;;;;;;;5020683;28;20501;-78
2023/07/21 06:14:03;;;;;;;6.07;2.38;;;;;;;;;;5032871;28;20049;-79
2023/07/21 06:16:29;;;;;;;6.90;2.30;;;;;;;;;;5022200;28;20041;-79
2023/07/21 06:18:55;;;;;;;5.00;2.08;;;;;;;;;;5023020;28;20371;-79
2023/07/21 06:21:20;;;;;;;6.30;2.40;;;;;;;;;;5024741;28;20045;-79
2023/07/21 06:23:49;;;;;;;5.75;2.30;;;;;;;;;;5028384;28;20045;-79
2023/07/21 06:26:15;;;;;;;4.78;2.30;;;;;;;;;;5030145;28;20111;-79
2023/07/21 06:28:41;;;;;;;6.68;2.78;;;;;;;;;;5011534;28;20041;-79
2023/07/21 06:31:08;;;;;;;9.60;2.80;;;;;;;;;;5008228;28;20031;-79
2023/07/21 06:33:33;;;;;;;6.95;3.22;;;;;;;;;;4994945;28;20542;-79
2023/07/21 06:35:59;;;;;;;9.45;4.10;;;;;;;;;;4994158;28;20034;-80
2023/07/21 06:38:24;;;;;;;11.75;4.10;;;;;;;;;;5009118;28;20456;-79
2023/07/21 06:40:51;;;;;;;10.48;4.03;;;;;;;;;;5036783;28;20508;-79
2023/07/21 06:43:17;;;;;;;13.05;4.65;;;;;;;;;;5013936;28;20030;-79
2023/07/21 06:45:42;;;;;;;11.60;4.80;;;;;;;;;;4994989;28;20091;-79
2023/07/21 06:48:11;;;;;;;12.30;5.00;;;;;;;;;;5032579;28;20514;-79
2023/07/21 06:50:38;;;;;;;12.77;4.70;;;;;;;;;;5008328;28;20268;-79
2023/07/21 06:53:06;;;;;;;12.63;4.70;;;;;;;;;;4998074;28;20455;-79
2023/07/21 06:55:32;;;;;;;15.82;5.45;;;;;;;;;;4982691;28;20034;-80
2023/07/21 06:57:58;;;;;;;14.98;5.80;;;;;;;;;;5033754;28;20731;-79
2023/07/21 07:00:23;;;;;;;15.63;6.43;;;;;;;;;;5022430;28;20034;-79
2023/07/21 07:02:49;;;;;;;17.02;6.93;;;;;;;;;;5011259;28;20432;-79
2023/07/21 07:05:21;;;;;;;13.85;6.78;;;;;;;;;;5024713;28;20046;-79
2023/07/21 07:07:50;;;;;;;17.30;7.82;;;;;;;;;;5041599;28;20044;-79
2023/07/21 07:10:18;;;;;;;21.80;9.02;;;;;;;;;;5010375;28;20157;-79
2023/07/21 07:12:44;;;;;;;17.77;9.30;;;;;;;;;;5024705;28;20396;-79
2023/07/21 07:15:10;;;;;;;20.42;8.60;;;;;;;;;;5006737;28;20034;-80
2023/07/21 07:17:36;;;;;;;26.48;9.88;;;;;;;;;;5000551;28;20042;-79
2023/07/21 07:20:09;;;;;;;25.40;10.70;;;;;;;;;;4991857;28;20033;-80
2023/07/21 07:22:35;;;;;;;22.77;10.10;;;;;;;;;;4984121;28;20417;-80
2023/07/21 07:25:10;;;;;;;23.92;11.27;;;;;;;;;;4996775;28;20041;-79
2023/07/21 07:27:35;;;;;;;20.05;10.75;;;;;;;;;;5023365;28;20485;-79
2023/07/21 07:30:10;;;;;;;23.63;10.85;;;;;;;;;;5014641;28;20068;-79
2023/07/21 07:32:36;;;;;;;21.25;10.25;;;;;;;;;;4981534;28;20115;-79
2023/07/21 07:35:02;;;;;;;26.98;10.75;;;;;;;;;;4998785;28;20029;-79
2023/07/21 07:37:27;;;;;;;19.75;9.13;;;;;;;;;;5012661;28;20052;-79
2023/07/21 07:39:56;;;;;;;18.00;8.70;;;;;;;;;;5022599;28;20041;-79
2023/07/21 07:42:25;;;;;;;19.00;8.90;;;;;;;;;;5019610;28;20036;-80
2023/07/21 07:44:58;;;;;;;16.33;8.32;;;;;;;;;;4991642;28;20034;-80
2023/07/21 07:47:27;;;;;;;18.95;7.93;;;;;;;;;;5000807;28;20047;-77
2023/07/21 07:49:53;;;;;;;11.98;6.60;;;;;;;;;;5002582;28;20037;-80
2023/07/21 07:52:19;;;;;;;14.35;6.30;;;;;;;;;;4995874;28;20048;-79
2023/07/21 07:54:44;;;;;;;14.77;5.90;;;;;;;;;;4989980;28;20494;-79
2023/07/21 07:57:16;;;;;;;13.80;6.03;;;;;;;;;;5024276;28;20044;-79
2023/07/21 07:59:42;;;;;;;12.15;5.75;;;;;;;;;;4989008;28;20489;-80
2023/07/21 08:02:10;;;;;;;12.13;5.53;;;;;;;;;;4973505;28;20125;-80
2023/07/21 08:04:36;;;;;;;9.57;3.92;;;;;;;;;;4993401;28;20503;-80
2023/07/21 08:07:09;;;;;;;11.13;5.05;;;;;;;;;;5032104;28;20062;-78
2023/07/21 08:09:34;;;;;;;8.52;4.10;;;;;;;;;;5004014;28;20528;-78
2023/07/21 08:12:03;;;;;;;7.57;3.50;;;;;;;;;;4985492;28;20043;-79
2023/07/21 08:14:29;;;;;;;9.32;4.05;;;;;;;;;;4995096;28;20043;-80
2023/07/21 08:16:54;;;;;;;8.65;3.70;;;;;;;;;;5002689;28;20037;-77
2023/07/21 08:19:22;;;;;;;6.32;2.97;;;;;;;;;;4981747;28;20033;-79
2023/07/21 08:21:50;;;;;;;8.13;2.10;;;;;;;;;;5007699;28;20091;-80
2023/07/21 08:24:16;;;;;;;6.68;2.05;;;;;;;;;;5020305;28;20443;-80
2023/07/21 08:26:41;;;;;;;6.43;2.20;;;;;;;;;;5001061;28;20041;-80
2023/07/21 08:29:08;;;;;;;5.70;1.52;;;;;;;;;;5016854;28;20121;-78
2023/07/21 08:31:36;;;;;;;7.05;2.13;;;;;;;;;;5028600;28;20082;-79
2023/07/21 08:34:04;;;;;;;4.47;1.75;;;;;;;;;;5019061;28;20038;-79
2023/07/21 08:36:34;;;;;;;;;;;;;;;;;;5001744;28;20149;-79
2023/07/21 08:39:03;;;;;;;4.95;1.17;;;;;;;;;;5012575;28;19949;-78
2023/07/21 08:41:34;;;;;;;6.28;0.95;;;;;;;;;;5007505;28;20041;-79
2023/07/21 08:44:03;;;;;;;3.78;0.80;;;;;;;;;;5019968;28;20061;-78
2023/07/21 08:46:29;;;;;;;5.53;1.05;;;;;;;;;;5013690;28;20034;-78
2023/07/21 08:48:54;;;;;;;6.25;1.05;;;;;;;;;;4990155;28;20091;-79
2023/07/21 08:51:23;;;;;;;3.63;1.20;;;;;;;;;;5019477;28;20033;-79
2023/07/21 08:53:49;;;;;;;7.93;1.40;;;;;;;;;;4998697;28;20086;-78
2023/07/21 08:56:17;;;;;;;3.97;0.85;;;;;;;;;;5021493;28;20464;-79
2023/07/21 08:58:43;;;;;;;6.00;1.40;;;;;;;;;;4968200;28;20505;-79
2023/07/21 09:01:09;;;;;;;6.18;1.33;;;;;;;;;;5010591;28;20040;-79
2023/07/21 09:03:35;;;;;;;2.95;0.90;;;;;;;;;;4993317;28;20400;-79
2023/07/21 09:06:01;;;;;;;7.47;2.00;;;;;;;;;;4985501;28;20073;-79
2023/07/21 09:08:38;;;;;;;5.03;1.10;;;;;;;;;;4988827;28;20100;-78
2023/07/21 09:11:08;;;;;;;2.53;1.05;;;;;;;;;;4990903;28;20038;-78
2023/07/21 09:13:36;;;;;;;3.15;1.02;;;;;;;;;;4994898;28;20046;-78
2023/07/21 09:16:06;;;;;;;5.00;1.00;;;;;;;;;;5013134;28;20033;-78
2023/07/21 09:18:38;;;;;;;2.88;0.82;;;;;;;;;;4991244;28;20493;-78
2023/07/21 09:21:06;;;;;;;3.97;1.10;;;;;;;;;;5005163;28;20112;-78
2023/07/21 09:23:32;;;;;;;3.42;1.08;;;;;;;;;;5013772;28;20066;-79
2023/07/21 09:26:01;;;;;;;3.58;1.30;;;;;;;;;;4997944;28;20156;-78
2023/07/21 09:28:42;;;;;;;3.95;1.02;;;;;;;;;;4995965;28;20037;-79
2023/07/21 09:31:09;;;;;;;4.00;0.90;;;;;;;;;;5004860;28;20029;-79
2023/07/21 09:33:39;;;;;;;3.75;1.00;;;;;;;;;;4998574;28;20026;-77
2023/07/21 09:36:09;;;;;;;4.85;1.15;;;;;;;;;;5024106;28;20501;-78
2023/07/21 09:38:35;;;;;;;2.92;0.80;;;;;;;;;;4999872;28;20030;-81
2023/07/21 09:41:02;;;;;;;3.20;1.00;;;;;;;;;;5004720;28;20041;-78
2023/07/21 09:43:29;;;;;;;2.88;0.75;;;;;;;;;;5019564;28;20037;-76
2023/07/21 09:46:01;;;;;;;4.47;1.20;;;;;;;;;;5020885;28;20505;-78
2023/07/21 09:48:32;;;;;;;4.80;1.20;;;;;;;;;;5007232;28;20057;-78
2023/07/21 09:51:03;;;;;;;3.88;1.10;;;;;;;;;;4979164;28;20519;-79
2023/07/21 09:53:40;;;;;;;3.65;0.93;;;;;;;;;;5022926;28;20041;-79
2023/07/21 09:56:07;;;;;;;7.90;1.48;;;;;;;;;;5014794;28;20531;-79
2023/07/21 09:59:01;;;;;;;4.70;1.40;;;;;;;;;;4979099;28;20560;-78
2023/07/21 10:01:30;;;;;;;5.55;1.35;;;;;;;;;;4991229;28;20038;-80
2023/07/21 10:03:59;;;;;;;6.30;1.23;;;;;;;;;;4989438;28;20057;-78
2023/07/21 10:06:25;;;;;;;3.40;1.10;;;;;;;;;;5021173;28;20046;-78
2023/07/21 10:08:56;;;;;;;3.47;1.05;;;;;;;;;;5009267;28;20079;-78
2023/07/21 10:11:22;;;;;;;2.25;0.90;;;;;;;;;;5020105;28;20034;-80
2023/07/21 10:13:50;;;;;;;6.70;1.20;;;;;;;;;;4991684;28;20034;-78
2023/07/21 10:16:20;;;;;;;5.28;1.67;;;;;;;;;;5035451;28;20080;-78
2023/07/21 10:19:08;;;;;;;6.90;1.30;;;;;;;;;;4990473;28;20058;-78
2023/07/21 10:22:00;;;;;;;3.53;1.00;;;;;;;;;;5020819;28;20030;-79
2023/07/21 10:24:33;;;;;;;3.42;0.90;;;;;;;;;;4986941;28;20427;-78
2023/07/21 10:27:03;;;;;;;2.53;0.90;;;;;;;;;;5012530;28;20038;-78
2023/07/21 10:29:29;;;;;;;4.13;1.00;;;;;;;;;;4991289;28;20049;-78
2023/07/21 10:31:56;;;;;;;5.70;1.05;;;;;;;;;;4999344;28;20574;-78
2023/07/21 10:34:34;;;;;;;2.30;0.88;;;;;;;;;;5013666;28;20033;-77
2023/07/21 10:37:02;;;;;;;4.22;1.20;;;;;;;;;;5007617;28;20489;-78
2023/07/21 10:39:31;;;;;;;3.85;1.08;;;;;;;;;;4973252;28;20068;-78
2023/07/21 10:41:58;;;;;;;3.10;0.95;;;;;;;;;;5012826;28;20054;-78
2023/07/21 10:44:40;;;;;;;5.28;1.40;;;;;;;;;;5019825;28;20158;-79
2023/07/21 10:47:15;;;;;;;3.60;1.00;;;;;;;;;;4989735;28;20052;-78
2023/07/21 10:49:41;;;;;;;3.50;1.33;;;;;;;;;;5014324;28;20038;-78
2023/07/21 10:52:23;;;;;;;4.55;1.05;;;;;;;;;;5036643;28;20484;-78
2023/07/21 10:54:48;;;;;;;3.90;1.10;;;;;;;;;;5022476;28;20080;-79
2023/07/21 10:57:17;;;;;;;4.15;1.20;;;;;;;;;;5007264;28;20117;-78
2023/07/21 10:59:42;;;;;;;3.60;0.90;;;;;;;;;;4985219;28;20374;-78
2023/07/21 11:02:31;;;;;;;4.85;1.15;;;;;;;;;;5035921;28;20041;-77
2023/07/21 11:05:03;;;;;;;5.45;1.17;;;;;;;;;;5008193;28;20041;-78
2023/07/21 11:07:28;;;;;;;2.40;0.85;;;;;;;;;;5014665;28;20917;-78
2023/07/21 11:10:00;;;;;;;4.53;1.00;;;;;;;;;;5009349;28;20042;-78
2023/07/21 11:12:49;;;;;;;5.88;1.00;;;;;;;;;;4993946;28;20041;-78
2023/07/21 11:15:17;;;;;;;2.78;1.08;;;;;;;;;;5008798;28;20499;-78
2023/07/21 11:17:44;;;;;;;2.90;0.90;;;;;;;;;;4990213;28;20030;-78
2023/07/21 11:20:10;;;;;;;3.58;1.00;;;;;;;;;;4988895;28;20501;-78
2023/07/21 11:22:36;;;;;;;4.03;1.13;;;;;;;;;;5006375;28;20042;-78
2023/07/21 11:25:10;;;;;;;4.03;0.90;;;;;;;;;;4985042;28;20035;-79
2023/07/21 11:27:42;;;;;;;3.13;1.05;;;;;;;;;;4983800;28;20037;-78
2023/07/21 11:30:08;;;;;;;2.03;0.90;;;;;;;;;;5026753;28;20041;-78
2023/07/21 11:32:34;;;;;;;2.05;1.00;;;;;;;;;;5023772;28;20038;-78
2023/07/21 11:35:20;;;;;;;3.40;1.02;;;;;;;;;;5007432;28;20065;-79
2023/07/21 11:37:46;;;;;;;3.30;1.27;;;;;;;;;;4966829;28;20484;-78
2023/07/21 11:40:25;;;;;;;3.53;1.00;;;;;;;;;;4967584;28;20046;-79
2023/07/21 11:42:54;;;;;;;2.33;1.10;;;;;;;;;;4952749;28;20454;-78
2023/07/21 11:45:35;;;;;;;3.97;1.10;;;;;;;;;;4934381;28;20049;-79
2023/07/21 11:48:03;;;;;;;4.82;1.05;;;;;;;;;;4958647;28;20050;-79
2023/07/21 11:50:29;;;;;;;5.10;1.00;;;;;;;;;;4948526;28;20127;-79
2023/07/21 11:52:58;;;;;;;3.33;1.08;;;;;;;;;;4950210;28;20498;-79
2023/07/21 11:55:23;;;;;;;2.90;1.15;;;;;;;;;;4965685;28;20046;-79
2023/07/21 11:57:49;;;;;;;3.60;1.33;;;;;;;;;;4954658;28;20043;-78
2023/07/21 12:00:17;;;;;;;3.17;1.10;;;;;;;;;;4941447;28;20045;-78
2023/07/21 12:02:43;;;;;;;2.47;1.00;;;;;;;;;;4952745;28;20149;-77
2023/07/21 12:05:11;;;;;;;4.18;1.20;;;;;;;;;;4937777;28;20537;-79
2023/07/21 12:07:37;;;;;;;3.90;1.08;;;;;;;;;;4952040;28;20081;-79
2023/07/21 12:10:03;;;;;;;2.88;1.10;;;;;;;;;;4938911;28;20097;-79
2023/07/21 12:12:29;;;;;;;3.58;1.25;;;;;;;;;;4924225;28;20549;-79
2023/07/21 12:14:54;;;;;;;3.53;1.20;;;;;;;;;;4982416;28;20037;-79
2023/07/21 12:17:19;;;;;;;4.18;1.13;;;;;;;;;;4985977;28;20145;-79
2023/07/21 12:19:48;;;;;;;3.45;1.00;;;;;;;;;;5029305;28;20053;-78
2023/07/21 12:23:02;;;;;;;7.78;1.80;;;;;;;;;;5011350;28;20523;-82
2023/07/21 12:25:27;;;;;;;16.10;3.17;;;;;;;;;;5012271;28;20480;-79
2023/07/21 12:27:52;;;;;;;6.65;1.30;;;;;;;;;;5008642;28;20041;-78
2023/07/21 12:30:18;;;;;;;4.25;1.33;;;;;;;;;;5017324;28;20169;-82
2023/07/21 12:32:46;;;;;;;3.13;1.10;;;;;;;;;;5008541;28;20046;-81
2023/07/21 12:35:20;;;;;;;2.85;1.17;;;;;;;;;;5006288;28;20030;-79
2023/07/21 12:37:46;;;;;;;3.10;1.10;;;;;;;;;;5021980;28;20053;-80
2023/07/21 12:40:17;;;;;;;3.00;0.90;;;;;;;;;;4995313;28;20037;-81
2023/07/21 12:42:43;;;;;;;4.45;1.42;;;;;;;;;;5033777;28;20484;-79
2023/07/21 12:45:11;;;;;;;2.55;1.20;;;;;;;;;;5019503;28;20152;-79
2023/07/21 12:47:43;;;;;;;2.38;1.00;;;;;;;;;;5002803;28;20121;-79
2023/07/21 12:50:09;;;;;;;3.70;1.10;;;;;;;;;;5008895;28;20120;-79
2023/07/21 12:52:34;;;;;;;2.08;1.00;;;;;;;;;;5006903;28;20466;-80
2023/07/21 12:55:20;;;;;;;2.90;1.08;;;;;;;;;;5016279;28;20150;-79
2023/07/21 12:57:52;;;;;;;2.00;1.00;;;;;;;;;;4984708;28;20495;-80
2023/07/21 13:00:17;;;;;;;2.17;1.00;;;;;;;;;;4971844;28;20125;-80
2023/07/21 13:02:55;;;;;;;2.15;1.10;;;;;;;;;;4985897;28;20114;-80
2023/07/21 13:05:27;;;;;;;1.85;0.95;;;;;;;;;;4950262;28;20771;-80
2023/07/21 13:07:53;;;;;;;1.70;0.93;;;;;;;;;;4965830;28;20153;-79
2023/07/21 13:10:18;;;;;;;2.97;0.98;;;;;;;;;;4976857;28;20046;-80
2023/07/21 13:12:47;;;;;;;2.20;0.90;;;;;;;;;;4994034;28;20034;-79
2023/07/21 13:15:12;;;;;;;2.40;1.10;;;;;;;;;;4958130;28;20042;-80
2023/07/21 13:17:48;;;;;;;2.20;1.00;;;;;;;;;;4993651;28;20030;-80
2023/07/21 13:20:14;;;;;;;2.80;1.02;;;;;;;;;;4952168;28;20407;-80
2023/07/21 13:22:43;;;;;;;2.50;1.05;;;;;;;;;;4987338;28;20045;-82
2023/07/21 13:25:11;;;;;;;2.25;1.10;;;;;;;;;;4962422;28;20038;-78
2023/07/21 13:27:39;;;;;;;3.65;1.30;;;;;;;;;;4980334;28;20092;-80
2023/07/21 13:30:05;;;;;;;2.53;1.20;;;;;;;;;;4986989;28;20374;-79
2023/07/21 13:32:36;;;;;;;3.38;1.33;;;;;;;;;;4961765;28;20041;-81
2023/07/21 13:35:08;;;;;;;3.67;1.20;;;;;;;;;;4981249;28;20065;-79
2023/07/21 13:37:36;;;;;;;4.97;1.20;;;;;;;;;;5035394;28;20058;-79
2023/07/21 13:40:03;;;;;;;4.18;1.75;;;;;;;;;;5015874;28;20367;-80
2023/07/21 13:42:29;;;;;;;6.65;1.20;;;;;;;;;;5005213;28;20030;-78
2023/07/21 13:44:55;;;;;;;3.55;1.35;;;;;;;;;;4992967;28;20092;-79
2023/07/21 13:47:20;;;;;;;2.80;1.23;;;;;;;;;;5019417;28;20033;-80
2023/07/21 13:49:49;;;;;;;2.08;1.20;;;;;;;;;;5012949;28;20045;-81
2023/07/21 13:52:14;;;;;;;2.83;1.20;;;;;;;;;;5017297;28;20419;-81
2023/07/21 13:54:43;;;;;;;2.50;1.30;;;;;;;;;;5021048;28;20093;-80
2023/07/21 13:57:09;;;;;;;3.75;1.20;;;;;;;;;;5005061;28;20368;-80
2023/07/21 13:59:34;;;;;;;3.80;1.50;;;;;;;;;;5022621;28;20088;-79
2023/07/21 14:02:00;;;;;;;2.70;1.30;;;;;;;;;;5005517;28;20501;-81
2023/07/21 14:04:28;;;;;;;2.40;1.30;;;;;;;;;;4996719;28;20034;-81
2023/07/21 14:06:57;;;;;;;5.10;1.23;;;;;;;;;;5002253;28;20096;-79
2023/07/21 14:09:22;;;;;;;3.25;1.35;;;;;;;;;;5008510;28;20045;-80
2023/07/21 14:11:56;;;;;;;3.47;1.08;;;;;;;;;;5015134;28;20389;-79
2023/07/21 14:14:25;;;;;;;3.95;1.10;;;;;;;;;;5003738;28;20987;-80
2023/07/21 14:17:00;;;;;;;4.03;1.00;;;;;;;;;;4988172;28;20133;-81
2023/07/21 14:19:25;;;;;;;1.85;0.90;;;;;;;;;;4981628;28;20036;-80
2023/07/21 14:21:50;;;;;;;1.70;0.90;;;;;;;;;;4974920;28;20047;-80
2023/07/21 14:24:16;;;;;;;1.83;0.90;;;;;;;;;;5010932;28;20034;-80
2023/07/21 14:26:44;;;;;;;2.78;1.02;;;;;;;;;;4987197;28;20036;-81
2023/07/21 14:29:10;;;;;;;3.05;1.13;;;;;;;;;;5004096;28;20041;-82
2023/07/21 14:31:38;;;;;;;1.92;1.02;;;;;;;;;;4983594;28;20048;-81
2023/07/21 14:34:04;;;;;;;2.65;0.90;;;;;;;;;;5005931;28;20049;-81
2023/07/21 14:36:39;;;;;;;2.90;1.00;;;;;;;;;;5000228;28;20041;-80
2023/07/21 14:39:05;;;;;;;2.50;0.90;;;;;;;;;;4973644;28;20086;-81
2023/07/21 14:41:39;;;;;;;2.13;1.00;;;;;;;;;;4987321;28;20436;-80
2023/07/21 14:44:04;;;;;;;2.90;1.10;;;;;;;;;;4986652;28;20037;-82
2023/07/21 14:46:30;;;;;;;2.67;0.90;;;;;;;;;;5012102;28;20507;-80